sensor_id;sensor_type;location;lat;lon;timestamp;P1;durP1;ratioP1;P2;durP2;ratioP2
14139;SDS011;7150;53.514;9.988;2022-10-15T00:02:07;5.50;;;3.87;;
14139;SDS011;7150;53.514;9.988;2022-10-15T00:04:32;8.73;;;4.60;;
14139;SDS011;7150;53.514;9.988;2022-10-15T00:06:58;5.43;;;4.30;;
14139;SDS011;7150;53.514;9.988;2022-10-15T00:09:24;5.43;;;4.17;;
14139;SDS011;7150;53.514;9.988;2022-10-15T00:11:50;5.97;;;4.30;;
14139;SDS011;7150;53.514;9.988;2022-10-15T00:14:15;6.13;;;4.30;;
14139;SDS011;7150;53.514;9.988;2022-10-15T00:16:41;5.73;;;4.70;;
14139;SDS011;7150;53.514;9.988;2022-10-15T00:19:08;7.50;;;4.53;;
14139;SDS011;7150;53.514;9.988;2022-10-15T00:21:34;6.70;;;5.03;;
14139;SDS011;7150;53.514;9.988;2022-10-15T00:23:59;6.80;;;4.97;;
14139;SDS011;7150;53.514;9.988;2022-10-15T00:26:26;6.50;;;4.27;;
14139;SDS011;7150;53.514;9.988;2022-10-15T00:28:53;8.10;;;5.43;;
14139;SDS011;7150;53.514;9.988;2022-10-15T00:31:21;8.07;;;5.53;;
14139;SDS011;7150;53.514;9.988;2022-10-15T00:33:49;6.57;;;4.90;;
14139;SDS011;7150;53.514;9.988;2022-10-15T00:36:17;5.53;;;4.43;;
14139;SDS011;7150;53.514;9.988;2022-10-15T00:38:44;7.20;;;4.70;;
14139;SDS011;7150;53.514;9.988;2022-10-15T00:41:15;7.03;;;4.87;;
14139;SDS011;7150;53.514;9.988;2022-10-15T00:46:17;6.97;;;4.83;;
14139;SDS011;7150;53.514;9.988;2022-10-15T00:49:09;6.07;;;4.67;;
14139;SDS011;7150;53.514;9.988;2022-10-15T00:51:41;5.37;;;4.43;;
14139;SDS011;7150;53.514;9.988;2022-10-15T00:54:11;6.67;;;5.30;;
14139;SDS011;7150;53.514;9.988;2022-10-15T00:56:38;6.13;;;5.17;;
14139;SDS011;7150;53.514;9.988;2022-10-15T00:59:07;6.40;;;4.97;;
14139;SDS011;7150;53.514;9.988;2022-10-15T01:01:35;6.83;;;4.90;;
14139;SDS011;7150;53.514;9.988;2022-10-15T01:04:00;8.00;;;5.33;;
14139;SDS011;7150;53.514;9.988;2022-10-15T01:06:26;10.13;;;6.07;;
14139;SDS011;7150;53.514;9.988;2022-10-15T01:08:52;7.03;;;5.37;;
14139;SDS011;7150;53.514;9.988;2022-10-15T01:22:15;12.97;;;8.33;;
14139;SDS011;7150;53.514;9.988;2022-10-15T01:27:35;12.60;;;8.43;;
14139;SDS011;7150;53.514;9.988;2022-10-15T01:33:12;15.10;;;9.40;;
14139;SDS011;7150;53.514;9.988;2022-10-15T01:35:50;15.43;;;9.23;;
14139;SDS011;7150;53.514;9.988;2022-10-15T01:41:17;15.20;;;10.13;;
14139;SDS011;7150;53.514;9.988;2022-10-15T01:43:44;14.63;;;10.40;;
14139;SDS011;7150;53.514;9.988;2022-10-15T01:46:19;13.60;;;9.53;;
14139;SDS011;7150;53.514;9.988;2022-10-15T01:48:48;15.20;;;10.43;;
14139;SDS011;7150;53.514;9.988;2022-10-15T01:51:18;15.70;;;10.87;;
14139;SDS011;7150;53.514;9.988;2022-10-15T01:53:46;14.90;;;10.70;;
14139;SDS011;7150;53.514;9.988;2022-10-15T01:56:14;14.97;;;9.73;;
14139;SDS011;7150;53.514;9.988;2022-10-15T01:58:44;14.77;;;9.23;;
14139;SDS011;7150;53.514;9.988;2022-10-15T02:01:12;16.60;;;10.50;;
14139;SDS011;7150;53.514;9.988;2022-10-15T02:03:44;15.93;;;10.77;;
14139;SDS011;7150;53.514;9.988;2022-10-15T02:06:12;17.60;;;12.03;;
14139;SDS011;7150;53.514;9.988;2022-10-15T02:08:55;16.70;;;11.40;;
14139;SDS011;7150;53.514;9.988;2022-10-15T02:11:30;15.10;;;10.77;;
14139;SDS011;7150;53.514;9.988;2022-10-15T02:14:08;18.67;;;11.40;;
14139;SDS011;7150;53.514;9.988;2022-10-15T02:16:40;19.20;;;12.13;;
14139;SDS011;7150;53.514;9.988;2022-10-15T02:19:17;17.03;;;11.80;;
14139;SDS011;7150;53.514;9.988;2022-10-15T02:21:52;16.57;;;11.00;;
14139;SDS011;7150;53.514;9.988;2022-10-15T02:24:36;18.50;;;12.43;;
14139;SDS011;7150;53.514;9.988;2022-10-15T02:27:07;19.17;;;12.30;;
14139;SDS011;7150;53.514;9.988;2022-10-15T02:29:34;21.57;;;12.93;;
14139;SDS011;7150;53.514;9.988;2022-10-15T02:32:02;20.27;;;12.50;;
14139;SDS011;7150;53.514;9.988;2022-10-15T02:34:30;22.53;;;13.33;;
14139;SDS011;7150;53.514;9.988;2022-10-15T02:36:57;22.47;;;13.00;;
14139;SDS011;7150;53.514;9.988;2022-10-15T02:39:27;21.53;;;12.87;;
14139;SDS011;7150;53.514;9.988;2022-10-15T02:41:52;19.10;;;11.57;;
14139;SDS011;7150;53.514;9.988;2022-10-15T02:44:19;18.73;;;11.37;;
14139;SDS011;7150;53.514;9.988;2022-10-15T02:46:45;19.97;;;12.47;;
14139;SDS011;7150;53.514;9.988;2022-10-15T02:49:10;19.33;;;11.97;;
14139;SDS011;7150;53.514;9.988;2022-10-15T02:51:36;19.70;;;12.03;;
14139;SDS011;7150;53.514;9.988;2022-10-15T02:54:02;20.33;;;13.00;;
14139;SDS011;7150;53.514;9.988;2022-10-15T02:56:29;24.80;;;14.90;;
14139;SDS011;7150;53.514;9.988;2022-10-15T02:58:54;17.67;;;11.80;;
14139;SDS011;7150;53.514;9.988;2022-10-15T03:01:20;21.53;;;12.37;;
14139;SDS011;7150;53.514;9.988;2022-10-15T03:03:45;20.03;;;11.47;;
14139;SDS011;7150;53.514;9.988;2022-10-15T03:06:11;19.77;;;11.93;;
14139;SDS011;7150;53.514;9.988;2022-10-15T03:08:37;20.60;;;12.77;;
14139;SDS011;7150;53.514;9.988;2022-10-15T03:11:02;21.60;;;12.83;;
14139;SDS011;7150;53.514;9.988;2022-10-15T03:13:28;19.80;;;11.73;;
14139;SDS011;7150;53.514;9.988;2022-10-15T03:15:54;21.00;;;12.40;;
14139;SDS011;7150;53.514;9.988;2022-10-15T03:18:20;17.67;;;11.03;;
14139;SDS011;7150;53.514;9.988;2022-10-15T03:20:55;19.30;;;11.70;;
14139;SDS011;7150;53.514;9.988;2022-10-15T03:23:21;19.70;;;11.60;;
14139;SDS011;7150;53.514;9.988;2022-10-15T03:25:47;19.83;;;11.60;;
14139;SDS011;7150;53.514;9.988;2022-10-15T03:28:12;15.87;;;9.53;;
14139;SDS011;7150;53.514;9.988;2022-10-15T03:30:38;15.20;;;9.50;;
14139;SDS011;7150;53.514;9.988;2022-10-15T03:33:03;13.57;;;8.47;;
14139;SDS011;7150;53.514;9.988;2022-10-15T03:35:29;16.10;;;9.50;;
14139;SDS011;7150;53.514;9.988;2022-10-15T03:37:54;13.93;;;8.37;;
14139;SDS011;7150;53.514;9.988;2022-10-15T03:40:20;12.87;;;8.17;;
14139;SDS011;7150;53.514;9.988;2022-10-15T03:42:49;13.43;;;8.63;;
14139;SDS011;7150;53.514;9.988;2022-10-15T03:45:15;15.77;;;8.50;;
14139;SDS011;7150;53.514;9.988;2022-10-15T03:47:42;16.60;;;9.10;;
14139;SDS011;7150;53.514;9.988;2022-10-15T03:50:07;12.40;;;8.13;;
14139;SDS011;7150;53.514;9.988;2022-10-15T03:52:33;13.53;;;8.07;;
14139;SDS011;7150;53.514;9.988;2022-10-15T03:55:00;13.03;;;7.23;;
14139;SDS011;7150;53.514;9.988;2022-10-15T03:57:25;15.73;;;8.73;;
14139;SDS011;7150;53.514;9.988;2022-10-15T03:59:51;14.17;;;7.83;;
14139;SDS011;7150;53.514;9.988;2022-10-15T04:02:16;13.50;;;7.70;;
14139;SDS011;7150;53.514;9.988;2022-10-15T04:04:42;12.60;;;8.03;;
14139;SDS011;7150;53.514;9.988;2022-10-15T04:07:08;16.27;;;8.67;;
14139;SDS011;7150;53.514;9.988;2022-10-15T04:09:33;10.97;;;7.03;;
14139;SDS011;7150;53.514;9.988;2022-10-15T04:11:59;13.27;;;8.00;;
14139;SDS011;7150;53.514;9.988;2022-10-15T04:14:24;15.03;;;8.20;;
14139;SDS011;7150;53.514;9.988;2022-10-15T04:16:50;16.03;;;9.00;;
14139;SDS011;7150;53.514;9.988;2022-10-15T04:19:15;16.80;;;9.17;;
14139;SDS011;7150;53.514;9.988;2022-10-15T04:21:41;15.40;;;9.23;;
14139;SDS011;7150;53.514;9.988;2022-10-15T04:24:07;17.67;;;9.90;;
14139;SDS011;7150;53.514;9.988;2022-10-15T04:26:33;16.50;;;9.80;;
14139;SDS011;7150;53.514;9.988;2022-10-15T04:28:58;15.33;;;8.77;;
14139;SDS011;7150;53.514;9.988;2022-10-15T04:31:24;15.70;;;9.47;;
14139;SDS011;7150;53.514;9.988;2022-10-15T04:33:50;16.50;;;9.27;;
14139;SDS011;7150;53.514;9.988;2022-10-15T04:36:15;17.43;;;10.50;;
14139;SDS011;7150;53.514;9.988;2022-10-15T04:38:41;16.20;;;10.20;;
14139;SDS011;7150;53.514;9.988;2022-10-15T04:41:07;18.90;;;10.43;;
14139;SDS011;7150;53.514;9.988;2022-10-15T04:43:34;14.20;;;9.40;;
14139;SDS011;7150;53.514;9.988;2022-10-15T04:46:01;17.87;;;9.40;;
14139;SDS011;7150;53.514;9.988;2022-10-15T04:48:28;15.60;;;9.10;;
14139;SDS011;7150;53.514;9.988;2022-10-15T04:51:02;14.20;;;8.80;;
14139;SDS011;7150;53.514;9.988;2022-10-15T04:53:32;16.50;;;8.93;;
14139;SDS011;7150;53.514;9.988;2022-10-15T04:56:01;19.17;;;9.33;;
14139;SDS011;7150;53.514;9.988;2022-10-15T04:58:30;16.23;;;9.43;;
14139;SDS011;7150;53.514;9.988;2022-10-15T05:00:58;24.53;;;11.90;;
14139;SDS011;7150;53.514;9.988;2022-10-15T05:03:27;22.57;;;11.77;;
14139;SDS011;7150;53.514;9.988;2022-10-15T05:05:53;20.00;;;10.93;;
14139;SDS011;7150;53.514;9.988;2022-10-15T05:08:23;18.40;;;10.33;;
14139;SDS011;7150;53.514;9.988;2022-10-15T05:10:49;17.50;;;10.37;;
14139;SDS011;7150;53.514;9.988;2022-10-15T05:13:14;19.50;;;10.50;;
14139;SDS011;7150;53.514;9.988;2022-10-15T05:15:40;22.30;;;11.60;;
14139;SDS011;7150;53.514;9.988;2022-10-15T05:18:05;19.40;;;11.43;;
14139;SDS011;7150;53.514;9.988;2022-10-15T05:20:31;19.27;;;10.47;;
14139;SDS011;7150;53.514;9.988;2022-10-15T05:22:56;19.20;;;10.53;;
14139;SDS011;7150;53.514;9.988;2022-10-15T05:25:22;16.73;;;9.27;;
14139;SDS011;7150;53.514;9.988;2022-10-15T05:27:47;19.17;;;9.70;;
14139;SDS011;7150;53.514;9.988;2022-10-15T05:30:13;18.20;;;10.10;;
14139;SDS011;7150;53.514;9.988;2022-10-15T05:32:38;17.77;;;9.97;;
14139;SDS011;7150;53.514;9.988;2022-10-15T05:35:04;18.83;;;10.50;;
14139;SDS011;7150;53.514;9.988;2022-10-15T05:37:30;20.20;;;10.10;;
14139;SDS011;7150;53.514;9.988;2022-10-15T05:39:55;17.90;;;10.17;;
14139;SDS011;7150;53.514;9.988;2022-10-15T05:42:21;17.57;;;10.43;;
14139;SDS011;7150;53.514;9.988;2022-10-15T05:44:46;17.83;;;9.80;;
14139;SDS011;7150;53.514;9.988;2022-10-15T05:47:12;20.60;;;11.00;;
14139;SDS011;7150;53.514;9.988;2022-10-15T05:49:37;22.37;;;11.13;;
14139;SDS011;7150;53.514;9.988;2022-10-15T05:52:03;22.17;;;11.37;;
14139;SDS011;7150;53.514;9.988;2022-10-15T05:54:29;19.17;;;11.07;;
14139;SDS011;7150;53.514;9.988;2022-10-15T05:56:54;21.10;;;10.90;;
14139;SDS011;7150;53.514;9.988;2022-10-15T05:59:20;18.07;;;10.33;;
14139;SDS011;7150;53.514;9.988;2022-10-15T06:01:45;20.73;;;10.63;;
14139;SDS011;7150;53.514;9.988;2022-10-15T06:04:11;18.43;;;10.37;;
14139;SDS011;7150;53.514;9.988;2022-10-15T06:06:36;21.27;;;11.47;;
14139;SDS011;7150;53.514;9.988;2022-10-15T06:09:02;18.63;;;10.73;;
14139;SDS011;7150;53.514;9.988;2022-10-15T06:11:27;21.07;;;11.07;;
14139;SDS011;7150;53.514;9.988;2022-10-15T06:13:53;19.43;;;11.20;;
14139;SDS011;7150;53.514;9.988;2022-10-15T06:16:18;21.13;;;11.70;;
14139;SDS011;7150;53.514;9.988;2022-10-15T06:18:44;20.63;;;11.27;;
14139;SDS011;7150;53.514;9.988;2022-10-15T06:21:09;18.83;;;9.93;;
14139;SDS011;7150;53.514;9.988;2022-10-15T06:23:36;19.67;;;10.53;;
14139;SDS011;7150;53.514;9.988;2022-10-15T06:26:05;19.00;;;10.37;;
14139;SDS011;7150;53.514;9.988;2022-10-15T06:28:32;19.73;;;9.83;;
14139;SDS011;7150;53.514;9.988;2022-10-15T06:30:59;18.90;;;9.97;;
14139;SDS011;7150;53.514;9.988;2022-10-15T06:33:25;17.93;;;10.53;;
14139;SDS011;7150;53.514;9.988;2022-10-15T06:35:51;21.33;;;11.40;;
14139;SDS011;7150;53.514;9.988;2022-10-15T06:38:17;19.27;;;11.00;;
14139;SDS011;7150;53.514;9.988;2022-10-15T06:40:42;18.73;;;10.17;;
14139;SDS011;7150;53.514;9.988;2022-10-15T06:43:08;20.47;;;11.00;;
14139;SDS011;7150;53.514;9.988;2022-10-15T06:45:35;18.97;;;10.80;;
14139;SDS011;7150;53.514;9.988;2022-10-15T06:48:02;17.43;;;9.20;;
14139;SDS011;7150;53.514;9.988;2022-10-15T06:50:30;19.33;;;10.33;;
14139;SDS011;7150;53.514;9.988;2022-10-15T06:53:04;19.00;;;10.90;;
14139;SDS011;7150;53.514;9.988;2022-10-15T06:55:31;18.93;;;10.40;;
14139;SDS011;7150;53.514;9.988;2022-10-15T06:57:57;18.57;;;10.30;;
14139;SDS011;7150;53.514;9.988;2022-10-15T07:00:23;21.77;;;11.97;;
14139;SDS011;7150;53.514;9.988;2022-10-15T07:02:49;20.53;;;11.33;;
14139;SDS011;7150;53.514;9.988;2022-10-15T07:05:15;19.37;;;11.53;;
14139;SDS011;7150;53.514;9.988;2022-10-15T07:07:42;18.37;;;10.73;;
14139;SDS011;7150;53.514;9.988;2022-10-15T07:10:14;19.33;;;11.17;;
14139;SDS011;7150;53.514;9.988;2022-10-15T07:12:40;21.90;;;11.13;;
14139;SDS011;7150;53.514;9.988;2022-10-15T07:15:05;17.93;;;10.87;;
14139;SDS011;7150;53.514;9.988;2022-10-15T07:17:31;20.53;;;11.33;;
14139;SDS011;7150;53.514;9.988;2022-10-15T07:19:59;19.43;;;9.93;;
14139;SDS011;7150;53.514;9.988;2022-10-15T07:22:24;17.87;;;10.47;;
14139;SDS011;7150;53.514;9.988;2022-10-15T07:24:50;16.97;;;9.13;;
14139;SDS011;7150;53.514;9.988;2022-10-15T07:27:15;17.13;;;10.00;;
14139;SDS011;7150;53.514;9.988;2022-10-15T07:29:40;17.93;;;10.20;;
14139;SDS011;7150;53.514;9.988;2022-10-15T07:32:06;18.57;;;10.10;;
14139;SDS011;7150;53.514;9.988;2022-10-15T07:34:31;19.43;;;10.60;;
14139;SDS011;7150;53.514;9.988;2022-10-15T07:36:57;20.23;;;11.03;;
14139;SDS011;7150;53.514;9.988;2022-10-15T07:39:23;19.53;;;10.67;;
14139;SDS011;7150;53.514;9.988;2022-10-15T07:41:48;16.37;;;10.10;;
14139;SDS011;7150;53.514;9.988;2022-10-15T07:44:14;18.23;;;10.40;;
14139;SDS011;7150;53.514;9.988;2022-10-15T07:46:39;18.47;;;9.33;;
14139;SDS011;7150;53.514;9.988;2022-10-15T07:49:05;18.70;;;9.87;;
14139;SDS011;7150;53.514;9.988;2022-10-15T07:51:30;18.03;;;10.50;;
14139;SDS011;7150;53.514;9.988;2022-10-15T07:53:56;16.60;;;9.30;;
14139;SDS011;7150;53.514;9.988;2022-10-15T07:56:21;16.07;;;9.40;;
14139;SDS011;7150;53.514;9.988;2022-10-15T07:58:47;15.97;;;8.93;;
14139;SDS011;7150;53.514;9.988;2022-10-15T08:01:16;19.70;;;10.17;;
14139;SDS011;7150;53.514;9.988;2022-10-15T08:03:42;14.20;;;8.47;;
14139;SDS011;7150;53.514;9.988;2022-10-15T08:06:08;17.17;;;9.43;;
14139;SDS011;7150;53.514;9.988;2022-10-15T08:08:34;18.20;;;9.93;;
14139;SDS011;7150;53.514;9.988;2022-10-15T08:11:07;17.03;;;9.33;;
14139;SDS011;7150;53.514;9.988;2022-10-15T08:13:34;15.87;;;8.93;;
14139;SDS011;7150;53.514;9.988;2022-10-15T08:16:00;17.40;;;10.47;;
14139;SDS011;7150;53.514;9.988;2022-10-15T08:18:26;16.90;;;9.07;;
14139;SDS011;7150;53.514;9.988;2022-10-15T08:20:52;14.53;;;8.63;;
14139;SDS011;7150;53.514;9.988;2022-10-15T08:23:17;16.07;;;8.93;;
14139;SDS011;7150;53.514;9.988;2022-10-15T08:25:43;16.73;;;9.17;;
14139;SDS011;7150;53.514;9.988;2022-10-15T08:28:08;16.10;;;9.40;;
14139;SDS011;7150;53.514;9.988;2022-10-15T08:30:34;14.13;;;8.80;;
14139;SDS011;7150;53.514;9.988;2022-10-15T08:33:00;16.33;;;9.43;;
14139;SDS011;7150;53.514;9.988;2022-10-15T08:35:26;15.93;;;8.80;;
14139;SDS011;7150;53.514;9.988;2022-10-15T08:37:54;19.70;;;10.13;;
14139;SDS011;7150;53.514;9.988;2022-10-15T08:40:23;14.57;;;8.93;;
14139;SDS011;7150;53.514;9.988;2022-10-15T08:42:48;15.60;;;8.50;;
14139;SDS011;7150;53.514;9.988;2022-10-15T08:45:18;15.00;;;8.30;;
14139;SDS011;7150;53.514;9.988;2022-10-15T08:47:50;15.53;;;8.57;;
14139;SDS011;7150;53.514;9.988;2022-10-15T08:50:25;14.47;;;8.40;;
14139;SDS011;7150;53.514;9.988;2022-10-15T08:52:59;11.67;;;7.43;;
14139;SDS011;7150;53.514;9.988;2022-10-15T08:55:27;14.10;;;7.40;;
14139;SDS011;7150;53.514;9.988;2022-10-15T08:58:14;14.53;;;8.07;;
14139;SDS011;7150;53.514;9.988;2022-10-15T09:00:51;15.23;;;8.23;;
14139;SDS011;7150;53.514;9.988;2022-10-15T09:06:08;14.33;;;7.80;;
14139;SDS011;7150;53.514;9.988;2022-10-15T09:14:36;14.13;;;7.87;;
14139;SDS011;7150;53.514;9.988;2022-10-15T09:17:08;13.07;;;7.50;;
14139;SDS011;7150;53.514;9.988;2022-10-15T09:19:41;15.63;;;7.30;;
14139;SDS011;7150;53.514;9.988;2022-10-15T09:22:11;11.00;;;6.93;;
14139;SDS011;7150;53.514;9.988;2022-10-15T09:24:41;12.77;;;7.87;;
14139;SDS011;7150;53.514;9.988;2022-10-15T09:30:04;12.10;;;6.40;;
14139;SDS011;7150;53.514;9.988;2022-10-15T09:32:52;10.37;;;5.77;;
14139;SDS011;7150;53.514;9.988;2022-10-15T09:35:52;11.00;;;6.17;;
14139;SDS011;7150;53.514;9.988;2022-10-15T09:43:54;10.00;;;5.67;;
14139;SDS011;7150;53.514;9.988;2022-10-15T09:46:23;9.93;;;5.80;;
14139;SDS011;7150;53.514;9.988;2022-10-15T09:48:54;12.83;;;5.70;;
14139;SDS011;7150;53.514;9.988;2022-10-15T09:51:44;10.60;;;4.97;;
14139;SDS011;7150;53.514;9.988;2022-10-15T09:54:26;9.80;;;6.00;;
14139;SDS011;7150;53.514;9.988;2022-10-15T09:57:05;6.97;;;4.17;;
14139;SDS011;7150;53.514;9.988;2022-10-15T09:59:35;8.93;;;5.30;;
14139;SDS011;7150;53.514;9.988;2022-10-15T10:02:02;8.70;;;4.70;;
14139;SDS011;7150;53.514;9.988;2022-10-15T10:04:30;9.30;;;5.37;;
14139;SDS011;7150;53.514;9.988;2022-10-15T10:06:59;8.13;;;4.27;;
14139;SDS011;7150;53.514;9.988;2022-10-15T10:09:37;8.93;;;5.00;;
14139;SDS011;7150;53.514;9.988;2022-10-15T10:12:17;7.10;;;4.17;;
14139;SDS011;7150;53.514;9.988;2022-10-15T10:14:53;8.00;;;4.40;;
14139;SDS011;7150;53.514;9.988;2022-10-15T10:17:22;6.70;;;3.97;;
14139;SDS011;7150;53.514;9.988;2022-10-15T10:25:22;6.27;;;4.27;;
14139;SDS011;7150;53.514;9.988;2022-10-15T10:27:53;7.07;;;4.00;;
14139;SDS011;7150;53.514;9.988;2022-10-15T10:33:23;4.47;;;3.23;;
14139;SDS011;7150;53.514;9.988;2022-10-15T10:35:51;5.70;;;3.70;;
14139;SDS011;7150;53.514;9.988;2022-10-15T10:38:19;5.43;;;3.20;;
14139;SDS011;7150;53.514;9.988;2022-10-15T10:40:51;7.30;;;4.13;;
14139;SDS011;7150;53.514;9.988;2022-10-15T10:43:26;6.03;;;3.87;;
14139;SDS011;7150;53.514;9.988;2022-10-15T10:45:57;6.30;;;3.63;;
14139;SDS011;7150;53.514;9.988;2022-10-15T10:51:00;6.40;;;3.60;;
14139;SDS011;7150;53.514;9.988;2022-10-15T10:53:32;4.83;;;3.30;;
14139;SDS011;7150;53.514;9.988;2022-10-15T10:55:59;5.77;;;3.73;;
14139;SDS011;7150;53.514;9.988;2022-10-15T10:58:28;5.60;;;3.87;;
14139;SDS011;7150;53.514;9.988;2022-10-15T11:00:58;4.20;;;3.20;;
14139;SDS011;7150;53.514;9.988;2022-10-15T11:06:08;4.37;;;3.03;;
14139;SDS011;7150;53.514;9.988;2022-10-15T11:14:54;4.77;;;2.80;;
14139;SDS011;7150;53.514;9.988;2022-10-15T11:17:30;3.20;;;2.17;;
14139;SDS011;7150;53.514;9.988;2022-10-15T11:31:26;3.10;;;1.90;;
14139;SDS011;7150;53.514;9.988;2022-10-15T11:34:19;4.70;;;2.43;;
14139;SDS011;7150;53.514;9.988;2022-10-15T11:43:00;2.53;;;2.10;;
14139;SDS011;7150;53.514;9.988;2022-10-15T11:45:26;3.73;;;1.67;;
14139;SDS011;7150;53.514;9.988;2022-10-15T11:48:40;2.97;;;2.00;;
14139;SDS011;7150;53.514;9.988;2022-10-15T11:51:21;1.77;;;1.43;;
14139;SDS011;7150;53.514;9.988;2022-10-15T11:56:42;2.53;;;1.47;;
14139;SDS011;7150;53.514;9.988;2022-10-15T11:59:27;1.30;;;1.20;;
14139;SDS011;7150;53.514;9.988;2022-10-15T12:02:13;2.10;;;1.47;;
14139;SDS011;7150;53.514;9.988;2022-10-15T12:05:39;1.60;;;1.30;;
14139;SDS011;7150;53.514;9.988;2022-10-15T12:07:39;1.93;;;1.60;;
14139;SDS011;7150;53.514;9.988;2022-10-15T12:13:24;1.90;;;1.60;;
14139;SDS011;7150;53.514;9.988;2022-10-15T12:21:40;2.10;;;1.63;;
14139;SDS011;7150;53.514;9.988;2022-10-15T12:24:47;1.87;;;1.60;;
14139;SDS011;7150;53.514;9.988;2022-10-15T12:27:20;2.63;;;1.67;;
14139;SDS011;7150;53.514;9.988;2022-10-15T12:30:09;2.57;;;1.23;;
14139;SDS011;7150;53.514;9.988;2022-10-15T12:35:03;2.10;;;1.60;;
14139;SDS011;7150;53.514;9.988;2022-10-15T12:37:42;2.20;;;1.77;;
14139;SDS011;7150;53.514;9.988;2022-10-15T12:40:38;1.47;;;1.30;;
14139;SDS011;7150;53.514;9.988;2022-10-15T12:42:56;2.53;;;1.50;;
14139;SDS011;7150;53.514;9.988;2022-10-15T12:50:29;1.70;;;1.47;;
14139;SDS011;7150;53.514;9.988;2022-10-15T12:55:32;1.43;;;1.33;;
14139;SDS011;7150;53.514;9.988;2022-10-15T13:03:40;2.00;;;1.77;;
14139;SDS011;7150;53.514;9.988;2022-10-15T13:14:01;2.33;;;1.77;;
14139;SDS011;7150;53.514;9.988;2022-10-15T13:16:35;2.33;;;1.90;;
14139;SDS011;7150;53.514;9.988;2022-10-15T13:19:00;2.80;;;1.90;;
14139;SDS011;7150;53.514;9.988;2022-10-15T13:21:46;3.83;;;2.40;;
14139;SDS011;7150;53.514;9.988;2022-10-15T13:24:19;3.33;;;2.47;;
14139;SDS011;7150;53.514;9.988;2022-10-15T13:26:46;2.70;;;1.93;;
14139;SDS011;7150;53.514;9.988;2022-10-15T13:29:17;2.50;;;2.10;;
14139;SDS011;7150;53.514;9.988;2022-10-15T13:31:44;2.13;;;1.77;;
14139;SDS011;7150;53.514;9.988;2022-10-15T13:34:15;2.27;;;2.00;;
14139;SDS011;7150;53.514;9.988;2022-10-15T13:37:00;2.30;;;1.83;;
14139;SDS011;7150;53.514;9.988;2022-10-15T13:42:07;3.70;;;2.33;;
14139;SDS011;7150;53.514;9.988;2022-10-15T13:44:43;3.00;;;2.00;;
14139;SDS011;7150;53.514;9.988;2022-10-15T13:47:32;2.90;;;2.20;;
14139;SDS011;7150;53.514;9.988;2022-10-15T13:52:49;3.43;;;2.13;;
14139;SDS011;7150;53.514;9.988;2022-10-15T14:00:59;2.87;;;1.97;;
14139;SDS011;7150;53.514;9.988;2022-10-15T14:03:28;2.50;;;2.10;;
14139;SDS011;7150;53.514;9.988;2022-10-15T14:08:59;3.13;;;2.30;;
14139;SDS011;7150;53.514;9.988;2022-10-15T14:11:43;3.17;;;2.07;;
14139;SDS011;7150;53.514;9.988;2022-10-15T14:17:09;3.77;;;2.73;;
14139;SDS011;7150;53.514;9.988;2022-10-15T14:19:43;3.57;;;2.90;;
14139;SDS011;7150;53.514;9.988;2022-10-15T14:22:15;4.60;;;3.27;;
14139;SDS011;7150;53.514;9.988;2022-10-15T14:24:43;4.83;;;3.30;;
14139;SDS011;7150;53.514;9.988;2022-10-15T14:27:15;5.63;;;3.57;;
14139;SDS011;7150;53.514;9.988;2022-10-15T14:30:00;4.60;;;3.43;;
14139;SDS011;7150;53.514;9.988;2022-10-15T14:32:31;4.33;;;3.20;;
14139;SDS011;7150;53.514;9.988;2022-10-15T14:38:01;5.13;;;3.70;;
14139;SDS011;7150;53.514;9.988;2022-10-15T14:40:33;3.67;;;3.13;;
14139;SDS011;7150;53.514;9.988;2022-10-15T14:43:05;4.13;;;3.13;;
14139;SDS011;7150;53.514;9.988;2022-10-15T14:48:13;5.37;;;3.73;;
14139;SDS011;7150;53.514;9.988;2022-10-15T14:50:44;5.47;;;3.90;;
14139;SDS011;7150;53.514;9.988;2022-10-15T14:53:13;5.00;;;3.77;;
14139;SDS011;7150;53.514;9.988;2022-10-15T14:55:43;4.40;;;3.30;;
14139;SDS011;7150;53.514;9.988;2022-10-15T14:58:15;4.37;;;3.30;;
14139;SDS011;7150;53.514;9.988;2022-10-15T15:00:44;5.00;;;3.50;;
14139;SDS011;7150;53.514;9.988;2022-10-15T15:03:18;3.83;;;3.07;;
14139;SDS011;7150;53.514;9.988;2022-10-15T15:05:46;3.90;;;3.30;;
14139;SDS011;7150;53.514;9.988;2022-10-15T15:08:13;5.47;;;3.73;;
14139;SDS011;7150;53.514;9.988;2022-10-15T15:10:39;6.13;;;3.90;;
14139;SDS011;7150;53.514;9.988;2022-10-15T15:13:06;4.90;;;4.00;;
14139;SDS011;7150;53.514;9.988;2022-10-15T15:15:45;4.93;;;3.77;;
14139;SDS011;7150;53.514;9.988;2022-10-15T15:18:10;5.83;;;4.17;;
14139;SDS011;7150;53.514;9.988;2022-10-15T15:20:37;5.40;;;4.20;;
14139;SDS011;7150;53.514;9.988;2022-10-15T15:23:04;4.87;;;3.90;;
14139;SDS011;7150;53.514;9.988;2022-10-15T15:25:30;4.70;;;3.97;;
14139;SDS011;7150;53.514;9.988;2022-10-15T15:27:58;4.97;;;3.97;;
14139;SDS011;7150;53.514;9.988;2022-10-15T15:30:24;5.03;;;3.90;;
14139;SDS011;7150;53.514;9.988;2022-10-15T15:32:52;5.77;;;4.70;;
14139;SDS011;7150;53.514;9.988;2022-10-15T15:35:22;4.27;;;3.83;;
14139;SDS011;7150;53.514;9.988;2022-10-15T15:37:54;5.63;;;4.30;;
14139;SDS011;7150;53.514;9.988;2022-10-15T15:40:20;4.80;;;3.70;;
14139;SDS011;7150;53.514;9.988;2022-10-15T15:42:46;6.60;;;4.90;;
14139;SDS011;7150;53.514;9.988;2022-10-15T15:45:17;8.13;;;5.17;;
14139;SDS011;7150;53.514;9.988;2022-10-15T15:47:48;6.00;;;4.77;;
14139;SDS011;7150;53.514;9.988;2022-10-15T15:50:15;6.73;;;5.23;;
14139;SDS011;7150;53.514;9.988;2022-10-15T15:52:41;7.03;;;5.03;;
14139;SDS011;7150;53.514;9.988;2022-10-15T15:55:07;7.10;;;4.87;;
14139;SDS011;7150;53.514;9.988;2022-10-15T15:57:33;6.77;;;4.90;;
14139;SDS011;7150;53.514;9.988;2022-10-15T15:59:59;6.30;;;4.70;;
14139;SDS011;7150;53.514;9.988;2022-10-15T16:02:24;5.80;;;4.83;;
14139;SDS011;7150;53.514;9.988;2022-10-15T16:04:50;6.27;;;5.30;;
14139;SDS011;7150;53.514;9.988;2022-10-15T16:07:15;6.97;;;5.40;;
14139;SDS011;7150;53.514;9.988;2022-10-15T16:09:41;7.47;;;5.60;;
14139;SDS011;7150;53.514;9.988;2022-10-15T16:12:06;7.03;;;5.50;;
14139;SDS011;7150;53.514;9.988;2022-10-15T16:14:32;7.17;;;5.30;;
14139;SDS011;7150;53.514;9.988;2022-10-15T16:16:58;6.37;;;5.13;;
14139;SDS011;7150;53.514;9.988;2022-10-15T16:19:23;7.20;;;5.23;;
14139;SDS011;7150;53.514;9.988;2022-10-15T16:21:49;5.90;;;4.60;;
14139;SDS011;7150;53.514;9.988;2022-10-15T16:24:15;7.37;;;4.47;;
14139;SDS011;7150;53.514;9.988;2022-10-15T16:26:40;6.60;;;4.93;;
14139;SDS011;7150;53.514;9.988;2022-10-15T16:29:06;6.77;;;5.17;;
14139;SDS011;7150;53.514;9.988;2022-10-15T16:31:31;7.27;;;5.40;;
14139;SDS011;7150;53.514;9.988;2022-10-15T16:34:00;7.07;;;4.93;;
14139;SDS011;7150;53.514;9.988;2022-10-15T16:36:29;7.03;;;5.57;;
14139;SDS011;7150;53.514;9.988;2022-10-15T16:38:55;6.80;;;5.03;;
14139;SDS011;7150;53.514;9.988;2022-10-15T16:41:21;5.93;;;4.97;;
14139;SDS011;7150;53.514;9.988;2022-10-15T16:43:46;5.03;;;4.17;;
14139;SDS011;7150;53.514;9.988;2022-10-15T16:46:13;6.17;;;4.67;;
14139;SDS011;7150;53.514;9.988;2022-10-15T16:48:39;5.93;;;4.90;;
14139;SDS011;7150;53.514;9.988;2022-10-15T16:51:09;5.80;;;4.50;;
14139;SDS011;7150;53.514;9.988;2022-10-15T16:53:37;7.90;;;4.67;;
14139;SDS011;7150;53.514;9.988;2022-10-15T16:56:05;8.63;;;5.30;;
14139;SDS011;7150;53.514;9.988;2022-10-15T16:58:41;5.67;;;4.27;;
14139;SDS011;7150;53.514;9.988;2022-10-15T17:01:07;5.50;;;4.23;;
14139;SDS011;7150;53.514;9.988;2022-10-15T17:03:36;7.53;;;4.97;;
14139;SDS011;7150;53.514;9.988;2022-10-15T17:06:04;5.97;;;4.83;;
14139;SDS011;7150;53.514;9.988;2022-10-15T17:11:03;6.27;;;4.00;;
14139;SDS011;7150;53.514;9.988;2022-10-15T17:13:29;5.63;;;3.90;;
14139;SDS011;7150;53.514;9.988;2022-10-15T17:15:55;4.50;;;3.87;;
14139;SDS011;7150;53.514;9.988;2022-10-15T17:18:20;5.57;;;3.80;;
14139;SDS011;7150;53.514;9.988;2022-10-15T17:20:46;5.03;;;3.73;;